sensor_id;sensor_type;location;lat;lon;timestamp;pressure;altitude;pressure_sealevel;temperature;humidity
30724;BME280;17473;52.286;20.930;2023-07-29T00:00:47;99516.16;;;19.05;100.00
30724;BME280;17473;52.286;20.930;2023-07-29T00:03:14;99517.22;;;18.90;100.00
30724;BME280;17473;52.286;20.930;2023-07-29T00:05:41;99526.00;;;19.03;100.00
30724;BME280;17473;52.286;20.930;2023-07-29T00:08:08;99517.22;;;18.91;100.00
30724;BME280;17473;52.286;20.930;2023-07-29T00:10:37;99515.53;;;18.86;100.00
30724;BME280;17473;52.286;20.930;2023-07-29T00:13:05;99531.59;;;18.83;100.00
30724;BME280;17473;52.286;20.930;2023-07-29T00:15:33;99529.59;;;19.00;100.00
30724;BME280;17473;52.286;20.930;2023-07-29T00:18:00;99531.22;;;19.14;100.00
30724;BME280;17473;52.286;20.930;2023-07-29T00:20:27;99530.59;;;18.91;100.00
30724;BME280;17473;52.286;20.930;2023-07-29T00:22:54;99531.53;;;18.87;100.00
30724;BME280;17473;52.286;20.930;2023-07-29T00:25:22;99535.03;;;18.96;100.00
30724;BME280;17473;52.286;20.930;2023-07-29T00:27:49;99535.88;;;18.98;100.00
30724;BME280;17473;52.286;20.930;2023-07-29T00:30:16;99537.69;;;18.96;100.00
30724;BME280;17473;52.286;20.930;2023-07-29T00:32:43;99535.09;;;18.86;100.00
30724;BME280;17473;52.286;20.930;2023-07-29T00:35:11;99544.81;;;18.97;100.00
30724;BME280;17473;52.286;20.930;2023-07-29T00:37:38;99540.53;;;18.82;100.00
30724;BME280;17473;52.286;20.930;2023-07-29T00:40:15;99539.50;;;18.95;100.00
30724;BME280;17473;52.286;20.930;2023-07-29T00:42:43;99547.78;;;18.72;100.00
30724;BME280;17473;52.286;20.930;2023-07-29T00:45:11;99541.41;;;18.84;100.00
30724;BME280;17473;52.286;20.930;2023-07-29T00:47:38;99544.06;;;18.84;100.00
30724;BME280;17473;52.286;20.930;2023-07-29T00:50:07;99549.31;;;18.91;100.00
30724;BME280;17473;52.286;20.930;2023-07-29T00:52:36;99547.78;;;18.72;100.00
30724;BME280;17473;52.286;20.930;2023-07-29T00:55:05;99541.53;;;18.71;100.00
30724;BME280;17473;52.286;20.930;2023-07-29T00:57:33;99553.25;;;18.63;100.00
30724;BME280;17473;52.286;20.930;2023-07-29T01:00:02;99552.41;;;18.57;100.00
30724;BME280;17473;52.286;20.930;2023-07-29T01:02:30;99551.56;;;18.54;100.00
30724;BME280;17473;52.286;20.930;2023-07-29T01:05:00;99558.59;;;18.63;100.00
30724;BME280;17473;52.286;20.930;2023-07-29T01:07:35;99556.19;;;18.39;100.00
30724;BME280;17473;52.286;20.930;2023-07-29T01:10:19;99560.41;;;18.60;100.00
30724;BME280;17473;52.286;20.930;2023-07-29T01:13:00;99555.06;;;18.60;100.00
30724;BME280;17473;52.286;20.930;2023-07-29T01:15:49;99557.81;;;18.53;100.00
30724;BME280;17473;52.286;20.930;2023-07-29T01:18:39;99557.13;;;18.37;100.00
30724;BME280;17473;52.286;20.930;2023-07-29T01:21:08;99551.72;;;18.41;100.00
30724;BME280;17473;52.286;20.930;2023-07-29T01:23:37;99569.50;;;18.44;100.00
30724;BME280;17473;52.286;20.930;2023-07-29T01:26:04;99570.31;;;18.49;100.00
30724;BME280;17473;52.286;20.930;2023-07-29T01:28:31;99573.94;;;18.45;100.00
30724;BME280;17473;52.286;20.930;2023-07-29T01:34:12;99566.03;;;18.36;100.00
30724;BME280;17473;52.286;20.930;2023-07-29T01:36:42;99565.97;;;18.42;100.00
30724;BME280;17473;52.286;20.930;2023-07-29T01:39:14;99573.22;;;18.29;100.00
30724;BME280;17473;52.286;20.930;2023-07-29T01:41:44;99579.38;;;18.37;100.00
30724;BME280;17473;52.286;20.930;2023-07-29T01:44:12;99571.38;;;18.36;100.00
30724;BME280;17473;52.286;20.930;2023-07-29T01:46:40;99572.25;;;18.36;100.00
30724;BME280;17473;52.286;20.930;2023-07-29T01:49:07;99574.94;;;18.36;100.00
30724;BME280;17473;52.286;20.930;2023-07-29T01:51:34;99581.22;;;18.32;100.00
30724;BME280;17473;52.286;20.930;2023-07-29T01:54:01;99574.94;;;18.35;100.00
30724;BME280;17473;52.286;20.930;2023-07-29T01:56:28;99582.88;;;18.41;100.00
30724;BME280;17473;52.286;20.930;2023-07-29T01:58:55;99585.66;;;18.33;100.00
30724;BME280;17473;52.286;20.930;2023-07-29T02:01:23;99584.91;;;18.15;100.00
30724;BME280;17473;52.286;20.930;2023-07-29T02:03:50;99581.25;;;18.29;100.00
30724;BME280;17473;52.286;20.930;2023-07-29T02:06:22;99589.44;;;18.10;100.00
30724;BME280;17473;52.286;20.930;2023-07-29T02:08:49;99592.09;;;18.12;100.00
30724;BME280;17473;52.286;20.930;2023-07-29T02:11:16;99596.59;;;18.07;100.00
30724;BME280;17473;52.286;20.930;2023-07-29T02:13:43;99585.97;;;17.94;100.00
30724;BME280;17473;52.286;20.930;2023-07-29T02:16:10;99595.84;;;17.86;100.00
30724;BME280;17473;52.286;20.930;2023-07-29T02:18:37;99591.41;;;17.87;100.00
30724;BME280;17473;52.286;20.930;2023-07-29T02:21:04;99594.91;;;17.95;100.00
30724;BME280;17473;52.286;20.930;2023-07-29T02:23:32;99610.00;;;18.02;100.00
30724;BME280;17473;52.286;20.930;2023-07-29T02:25:59;99604.72;;;17.96;100.00
30724;BME280;17473;52.286;20.930;2023-07-29T02:28:26;99612.75;;;17.88;100.00
30724;BME280;17473;52.286;20.930;2023-07-29T02:31:23;99605.63;;;17.89;100.00
30724;BME280;17473;52.286;20.930;2023-07-29T02:33:51;99603.00;;;17.82;100.00
30724;BME280;17473;52.286;20.930;2023-07-29T02:36:19;99606.53;;;17.86;100.00
30724;BME280;17473;52.286;20.930;2023-07-29T02:38:46;99605.63;;;17.87;100.00
30724;BME280;17473;52.286;20.930;2023-07-29T02:41:13;99602.94;;;17.92;100.00
30724;BME280;17473;52.286;20.930;2023-07-29T02:43:49;99605.78;;;17.72;100.00
30724;BME280;17473;52.286;20.930;2023-07-29T02:46:19;99604.81;;;17.76;100.00
30724;BME280;17473;52.286;20.930;2023-07-29T02:48:46;99611.91;;;17.81;100.00
30724;BME280;17473;52.286;20.930;2023-07-29T02:51:13;99610.19;;;17.77;100.00
30724;BME280;17473;52.286;20.930;2023-07-29T02:53:40;99605.72;;;17.78;100.00
30724;BME280;17473;52.286;20.930;2023-07-29T02:56:08;99611.91;;;17.83;100.00
30724;BME280;17473;52.286;20.930;2023-07-29T02:58:37;99611.09;;;17.75;100.00
30724;BME280;17473;52.286;20.930;2023-07-29T03:01:05;99612.06;;;17.64;100.00
30724;BME280;17473;52.286;20.930;2023-07-29T03:03:33;99612.91;;;17.70;100.00
30724;BME280;17473;52.286;20.930;2023-07-29T03:06:07;99611.16;;;17.65;100.00
30724;BME280;17473;52.286;20.930;2023-07-29T03:08:35;99614.75;;;17.60;100.00
30724;BME280;17473;52.286;20.930;2023-07-29T03:11:14;99616.50;;;17.62;100.00
30724;BME280;17473;52.286;20.930;2023-07-29T03:13:42;99620.97;;;17.60;100.00
30724;BME280;17473;52.286;20.930;2023-07-29T03:16:11;99614.78;;;17.57;100.00
30724;BME280;17473;52.286;20.930;2023-07-29T03:18:39;99624.50;;;17.65;100.00
30724;BME280;17473;52.286;20.930;2023-07-29T03:21:07;99626.31;;;17.60;100.00
30724;BME280;17473;52.286;20.930;2023-07-29T03:23:35;99623.50;;;17.79;100.00
30724;BME280;17473;52.286;20.930;2023-07-29T03:26:03;99631.44;;;17.85;100.00
30724;BME280;17473;52.286;20.930;2023-07-29T03:28:42;99621.84;;;17.62;100.00
30724;BME280;17473;52.286;20.930;2023-07-29T03:31:10;99633.44;;;17.60;100.00
30724;BME280;17473;52.286;20.930;2023-07-29T03:33:38;99625.44;;;17.57;100.00
30724;BME280;17473;52.286;20.930;2023-07-29T03:36:05;99633.41;;;17.63;100.00
30724;BME280;17473;52.286;20.930;2023-07-29T03:38:32;99635.19;;;17.65;100.00
30724;BME280;17473;52.286;20.930;2023-07-29T03:41:08;99643.88;;;17.92;100.00
30724;BME280;17473;52.286;20.930;2023-07-29T03:43:35;99645.63;;;17.95;100.00
30724;BME280;17473;52.286;20.930;2023-07-29T03:46:02;99643.88;;;17.97;100.00
30724;BME280;17473;52.286;20.930;2023-07-29T03:48:30;99648.22;;;18.07;100.00
30724;BME280;17473;52.286;20.930;2023-07-29T03:50:58;99658.88;;;18.10;100.00
30724;BME280;17473;52.286;20.930;2023-07-29T03:53:25;99657.94;;;18.16;100.00
30724;BME280;17473;52.286;20.930;2023-07-29T03:55:52;99660.38;;;18.44;100.00
30724;BME280;17473;52.286;20.930;2023-07-29T03:58:19;99656.81;;;18.42;100.00
30724;BME280;17473;52.286;20.930;2023-07-29T04:00:46;99660.16;;;18.64;100.00
30724;BME280;17473;52.286;20.930;2023-07-29T04:03:14;99656.47;;;18.74;100.00
30724;BME280;17473;52.286;20.930;2023-07-29T04:05:41;99658.28;;;19.46;97.83
30724;BME280;17473;52.286;20.930;2023-07-29T04:08:08;99664.91;;;20.37;91.06
30724;BME280;17473;52.286;20.930;2023-07-29T04:10:35;99673.91;;;21.27;84.79
30724;BME280;17473;52.286;20.930;2023-07-29T04:13:02;99672.53;;;22.61;77.21
30724;BME280;17473;52.286;20.930;2023-07-29T04:15:29;99671.97;;;24.03;69.54
30724;BME280;17473;52.286;20.930;2023-07-29T04:17:57;99670.47;;;24.75;65.22
30724;BME280;17473;52.286;20.930;2023-07-29T04:20:24;99659.56;;;25.25;62.43
30724;BME280;17473;52.286;20.930;2023-07-29T04:22:51;99669.66;;;25.45;62.05
30724;BME280;17473;52.286;20.930;2023-07-29T04:25:19;99676.28;;;24.88;63.35
30724;BME280;17473;52.286;20.930;2023-07-29T04:27:46;99674.53;;;25.10;62.46
30724;BME280;17473;52.286;20.930;2023-07-29T04:30:13;99688.50;;;24.73;63.81
30724;BME280;17473;52.286;20.930;2023-07-29T04:32:40;99685.63;;;25.52;60.87
30724;BME280;17473;52.286;20.930;2023-07-29T04:35:09;99689.13;;;26.22;58.50
30724;BME280;17473;52.286;20.930;2023-07-29T04:37:36;99689.38;;;25.71;59.19
30724;BME280;17473;52.286;20.930;2023-07-29T04:40:03;99691.88;;;25.05;61.66
30724;BME280;17473;52.286;20.930;2023-07-29T04:42:31;99693.03;;;23.90;66.14
30724;BME280;17473;52.286;20.930;2023-07-29T04:44:58;99709.00;;;23.05;69.79
30724;BME280;17473;52.286;20.930;2023-07-29T04:47:25;99706.41;;;22.32;73.20
30724;BME280;17473;52.286;20.930;2023-07-29T04:49:53;99703.31;;;21.76;77.34
30724;BME280;17473;52.286;20.930;2023-07-29T04:52:20;99706.31;;;21.62;78.46
30724;BME280;17473;52.286;20.930;2023-07-29T04:54:48;99705.78;;;21.44;79.65
30724;BME280;17473;52.286;20.930;2023-07-29T04:57:16;99704.56;;;21.57;79.48
30724;BME280;17473;52.286;20.930;2023-07-29T04:59:43;99704.28;;;21.29;80.81
30724;BME280;17473;52.286;20.930;2023-07-29T05:02:10;99711.72;;;21.16;82.62
30724;BME280;17473;52.286;20.930;2023-07-29T05:04:37;99715.78;;;20.92;83.87
30724;BME280;17473;52.286;20.930;2023-07-29T05:07:04;99716.41;;;20.56;86.35
30724;BME280;17473;52.286;20.930;2023-07-29T05:09:31;99721.19;;;20.37;86.63
30724;BME280;17473;52.286;20.930;2023-07-29T05:11:59;99718.94;;;20.12;88.88
30724;BME280;17473;52.286;20.930;2023-07-29T05:14:26;99708.50;;;19.94;90.49
30724;BME280;17473;52.286;20.930;2023-07-29T05:16:53;99722.00;;;19.84;91.86
30724;BME280;17473;52.286;20.930;2023-07-29T05:19:20;99720.19;;;19.88;92.13
30724;BME280;17473;52.286;20.930;2023-07-29T05:21:47;99723.47;;;20.07;90.63
30724;BME280;17473;52.286;20.930;2023-07-29T05:24:14;99721.53;;;20.17;89.44
30724;BME280;17473;52.286;20.930;2023-07-29T05:26:41;99725.09;;;20.19;89.44
30724;BME280;17473;52.286;20.930;2023-07-29T05:29:08;99713.22;;;20.32;88.50
30724;BME280;17473;52.286;20.930;2023-07-29T05:31:35;99723.88;;;20.39;86.72
30724;BME280;17473;52.286;20.930;2023-07-29T05:34:02;99718.06;;;20.12;88.56
30724;BME280;17473;52.286;20.930;2023-07-29T05:36:29;99718.50;;;20.37;87.55
30724;BME280;17473;52.286;20.930;2023-07-29T05:38:57;99726.31;;;20.53;87.02
30724;BME280;17473;52.286;20.930;2023-07-29T05:41:24;99725.81;;;21.26;82.58
30724;BME280;17473;52.286;20.930;2023-07-29T05:43:54;99728.56;;;23.11;74.52
30724;BME280;17473;52.286;20.930;2023-07-29T05:46:21;99720.69;;;28.23;54.82
30724;BME280;17473;52.286;20.930;2023-07-29T05:48:48;99719.16;;;30.37;46.40
30724;BME280;17473;52.286;20.930;2023-07-29T05:51:15;99716.03;;;27.70;52.71
30724;BME280;17473;52.286;20.930;2023-07-29T05:53:42;99722.59;;;26.42;57.26
30724;BME280;17473;52.286;20.930;2023-07-29T05:56:09;99711.88;;;25.48;59.65
30724;BME280;17473;52.286;20.930;2023-07-29T05:58:37;99711.56;;;25.32;60.76
30724;BME280;17473;52.286;20.930;2023-07-29T06:01:04;99725.31;;;29.27;49.02
30724;BME280;17473;52.286;20.930;2023-07-29T06:03:31;99725.53;;;28.88;48.33
30724;BME280;17473;52.286;20.930;2023-07-29T06:05:58;99724.84;;;30.18;45.29
30724;BME280;17473;52.286;20.930;2023-07-29T06:08:25;99739.75;;;28.76;48.18
30724;BME280;17473;52.286;20.930;2023-07-29T06:10:55;99744.31;;;28.21;50.38
30724;BME280;17473;52.286;20.930;2023-07-29T06:13:22;99744.78;;;32.25;41.25
30724;BME280;17473;52.286;20.930;2023-07-29T06:15:49;99743.66;;;34.72;36.26
30724;BME280;17473;52.286;20.930;2023-07-29T06:18:17;99739.44;;;36.93;32.79
30724;BME280;17473;52.286;20.930;2023-07-29T06:20:44;99737.75;;;37.02;32.36
30724;BME280;17473;52.286;20.930;2023-07-29T06:23:11;99751.19;;;35.51;34.12
30724;BME280;17473;52.286;20.930;2023-07-29T06:25:38;99740.63;;;36.35;32.68
30724;BME280;17473;52.286;20.930;2023-07-29T06:28:05;99748.00;;;36.35;31.64
30724;BME280;17473;52.286;20.930;2023-07-29T06:30:32;99750.03;;;36.65;31.60
30724;BME280;17473;52.286;20.930;2023-07-29T06:32:59;99750.03;;;39.78;27.48
30724;BME280;17473;52.286;20.930;2023-07-29T06:35:27;99754.75;;;38.00;29.39
30724;BME280;17473;52.286;20.930;2023-07-29T06:37:54;99749.81;;;34.87;33.52
30724;BME280;17473;52.286;20.930;2023-07-29T06:40:21;99759.78;;;37.54;30.25
30724;BME280;17473;52.286;20.930;2023-07-29T06:42:48;99766.97;;;38.27;29.06
30724;BME280;17473;52.286;20.930;2023-07-29T06:45:15;99763.72;;;38.43;29.14
30724;BME280;17473;52.286;20.930;2023-07-29T06:47:42;99770.63;;;37.46;29.27
30724;BME280;17473;52.286;20.930;2023-07-29T06:50:09;99767.03;;;34.16;34.09
30724;BME280;17473;52.286;20.930;2023-07-29T06:52:37;99763.25;;;35.37;32.77
30724;BME280;17473;52.286;20.930;2023-07-29T06:55:05;99760.81;;;36.90;30.24
30724;BME280;17473;52.286;20.930;2023-07-29T06:57:32;99757.47;;;37.59;29.66
30724;BME280;17473;52.286;20.930;2023-07-29T06:59:59;99753.13;;;38.88;27.98
30724;BME280;17473;52.286;20.930;2023-07-29T07:02:26;99757.91;;;40.82;25.64
30724;BME280;17473;52.286;20.930;2023-07-29T07:04:54;99760.06;;;39.21;27.11
30724;BME280;17473;52.286;20.930;2023-07-29T07:07:21;99765.59;;;39.02;27.48
30724;BME280;17473;52.286;20.930;2023-07-29T07:09:48;99774.13;;;39.38;26.95
30724;BME280;17473;52.286;20.930;2023-07-29T07:12:15;99767.22;;;39.71;26.49
30724;BME280;17473;52.286;20.930;2023-07-29T07:14:42;99757.19;;;38.74;28.00
30724;BME280;17473;52.286;20.930;2023-07-29T07:17:09;99754.72;;;39.95;26.29
30724;BME280;17473;52.286;20.930;2023-07-29T07:19:39;99750.47;;;40.01;26.34
30724;BME280;17473;52.286;20.930;2023-07-29T07:22:06;99743.28;;;41.08;24.88
30724;BME280;17473;52.286;20.930;2023-07-29T07:24:34;99754.31;;;40.18;25.92
30724;BME280;17473;52.286;20.930;2023-07-29T07:27:01;99751.25;;;39.93;26.33
30724;BME280;17473;52.286;20.930;2023-07-29T07:29:29;99751.66;;;39.98;25.90
30724;BME280;17473;52.286;20.930;2023-07-29T07:31:57;99755.63;;;38.91;27.05
30724;BME280;17473;52.286;20.930;2023-07-29T07:34:24;99758.75;;;39.35;26.90
30724;BME280;17473;52.286;20.930;2023-07-29T07:36:51;99746.59;;;39.94;26.61
30724;BME280;17473;52.286;20.930;2023-07-29T07:39:19;99741.94;;;40.22;25.86
30724;BME280;17473;52.286;20.930;2023-07-29T07:41:46;99752.66;;;39.12;26.78
30724;BME280;17473;52.286;20.930;2023-07-29T07:44:13;99746.16;;;38.83;26.97
30724;BME280;17473;52.286;20.930;2023-07-29T07:46:42;99746.38;;;39.20;27.03
30724;BME280;17473;52.286;20.930;2023-07-29T07:49:09;99749.78;;;38.64;27.62
30724;BME280;17473;52.286;20.930;2023-07-29T07:51:36;99746.44;;;38.51;27.72
30724;BME280;17473;52.286;20.930;2023-07-29T07:54:03;99746.72;;;38.38;27.51
30724;BME280;17473;52.286;20.930;2023-07-29T07:56:30;99749.66;;;37.96;28.01
30724;BME280;17473;52.286;20.930;2023-07-29T07:58:57;99751.13;;;38.00;28.25
30724;BME280;17473;52.286;20.930;2023-07-29T08:01:24;99745.59;;;37.90;28.96
30724;BME280;17473;52.286;20.930;2023-07-29T08:03:51;99748.13;;;38.13;28.57
30724;BME280;17473;52.286;20.930;2023-07-29T08:06:18;99742.53;;;38.63;28.19
30724;BME280;17473;52.286;20.930;2023-07-29T08:08:46;99738.00;;;37.82;28.88
30724;BME280;17473;52.286;20.930;2023-07-29T08:11:13;99744.41;;;38.53;27.63
30724;BME280;17473;52.286;20.930;2023-07-29T08:13:40;99737.75;;;38.65;26.80
30724;BME280;17473;52.286;20.930;2023-07-29T08:16:07;99737.56;;;37.77;27.86
30724;BME280;17473;52.286;20.930;2023-07-29T08:18:34;99739.16;;;38.30;27.61
30724;BME280;17473;52.286;20.930;2023-07-29T08:21:01;99737.84;;;38.25;27.74
30724;BME280;17473;52.286;20.930;2023-07-29T08:23:31;99729.19;;;38.49;27.06
30724;BME280;17473;52.286;20.930;2023-07-29T08:26:01;99730.69;;;37.62;28.76
30724;BME280;17473;52.286;20.930;2023-07-29T08:28:31;99737.28;;;36.97;29.57
30724;BME280;17473;52.286;20.930;2023-07-29T08:30:59;99728.25;;;36.74;29.42
30724;BME280;17473;52.286;20.930;2023-07-29T08:33:27;99731.06;;;36.62;29.27
30724;BME280;17473;52.286;20.930;2023-07-29T08:35:54;99735.78;;;37.14;28.02
30724;BME280;17473;52.286;20.930;2023-07-29T08:38:21;99719.50;;;36.36;27.63
30724;BME280;17473;52.286;20.930;2023-07-29T08:41:19;99723.81;;;36.83;28.03
30724;BME280;17473;52.286;20.930;2023-07-29T08:44:06;99718.38;;;37.35;27.58
30724;BME280;17473;52.286;20.930;2023-07-29T08:46:39;99726.72;;;37.23;27.62
30724;BME280;17473;52.286;20.930;2023-07-29T08:49:07;99724.59;;;36.52;28.28
30724;BME280;17473;52.286;20.930;2023-07-29T08:51:35;99727.22;;;36.54;28.17
30724;BME280;17473;52.286;20.930;2023-07-29T08:54:03;99730.25;;;35.38;29.55
30724;BME280;17473;52.286;20.930;2023-07-29T08:56:30;99724.81;;;34.91;30.07
30724;BME280;17473;52.286;20.930;2023-07-29T08:58:58;99730.53;;;35.47;29.61
30724;BME280;17473;52.286;20.930;2023-07-29T09:01:28;99722.47;;;34.38;30.73
30724;BME280;17473;52.286;20.930;2023-07-29T09:03:55;99728.97;;;34.73;29.74
30724;BME280;17473;52.286;20.930;2023-07-29T09:06:23;99731.53;;;35.57;29.49
30724;BME280;17473;52.286;20.930;2023-07-29T09:08:54;99721.63;;;35.77;29.26
30724;BME280;17473;52.286;20.930;2023-07-29T09:11:23;99712.31;;;35.57;28.88
30724;BME280;17473;52.286;20.930;2023-07-29T09:13:51;99713.28;;;36.01;28.88
30724;BME280;17473;52.286;20.930;2023-07-29T09:16:20;99717.75;;;36.02;28.62
30724;BME280;17473;52.286;20.930;2023-07-29T09:18:52;99728.06;;;34.97;30.03
30724;BME280;17473;52.286;20.930;2023-07-29T09:21:25;99727.22;;;34.72;30.49
30724;BME280;17473;52.286;20.930;2023-07-29T09:23:54;99722.28;;;35.58;29.74
30724;BME280;17473;52.286;20.930;2023-07-29T09:26:28;99720.75;;;35.31;29.66
30724;BME280;17473;52.286;20.930;2023-07-29T09:28:57;99718.78;;;35.45;28.38
30724;BME280;17473;52.286;20.930;2023-07-29T09:31:26;99717.47;;;34.92;29.75
30724;BME280;17473;52.286;20.930;2023-07-29T09:34:04;99721.88;;;34.82;29.24
30724;BME280;17473;52.286;20.930;2023-07-29T09:36:33;99717.66;;;34.77;29.92
30724;BME280;17473;52.286;20.930;2023-07-29T09:39:01;99708.59;;;34.04;31.55
30724;BME280;17473;52.286;20.930;2023-07-29T09:41:30;99708.22;;;33.71;32.13
30724;BME280;17473;52.286;20.930;2023-07-29T09:44:03;99716.22;;;34.36;31.49
30724;BME280;17473;52.286;20.930;2023-07-29T09:46:36;99707.25;;;34.58;30.92
30724;BME280;17473;52.286;20.930;2023-07-29T09:49:06;99717.44;;;34.56;30.37
30724;BME280;17473;52.286;20.930;2023-07-29T09:51:38;99712.53;;;35.20;29.45
30724;BME280;17473;52.286;20.930;2023-07-29T09:54:07;99700.97;;;33.83;30.54
30724;BME280;17473;52.286;20.930;2023-07-29T09:56:41;99702.59;;;34.23;30.06
30724;BME280;17473;52.286;20.930;2023-07-29T09:59:10;99702.91;;;33.44;31.30
30724;BME280;17473;52.286;20.930;2023-07-29T10:01:38;99704.06;;;33.66;31.54
30724;BME280;17473;52.286;20.930;2023-07-29T10:04:06;99700.53;;;33.90;30.74
30724;BME280;17473;52.286;20.930;2023-07-29T10:06:39;99695.66;;;33.69;31.29
30724;BME280;17473;52.286;20.930;2023-07-29T10:09:07;99691.31;;;33.40;31.17
30724;BME280;17473;52.286;20.930;2023-07-29T10:11:34;99702.69;;;33.47;30.45
30724;BME280;17473;52.286;20.930;2023-07-29T10:14:02;99690.88;;;33.47;29.74
30724;BME280;17473;52.286;20.930;2023-07-29T10:16:38;99700.41;;;33.41;30.18
30724;BME280;17473;52.286;20.930;2023-07-29T10:19:07;99698.47;;;33.67;29.83
30724;BME280;17473;52.286;20.930;2023-07-29T10:21:39;99701.13;;;33.17;30.59
30724;BME280;17473;52.286;20.930;2023-07-29T10:24:11;99696.13;;;32.98;31.12
30724;BME280;17473;52.286;20.930;2023-07-29T10:26:40;99693.13;;;32.62;31.83
30724;BME280;17473;52.286;20.930;2023-07-29T10:29:12;99694.03;;;33.15;30.77
30724;BME280;17473;52.286;20.930;2023-07-29T10:31:43;99691.38;;;33.65;31.07
30724;BME280;17473;52.286;20.930;2023-07-29T10:34:12;99690.59;;;33.63;30.63
30724;BME280;17473;52.286;20.930;2023-07-29T10:36:41;99687.28;;;33.83;30.58
30724;BME280;17473;52.286;20.930;2023-07-29T10:39:08;99689.81;;;33.36;30.91
30724;BME280;17473;52.286;20.930;2023-07-29T10:42:05;99688.66;;;34.02;30.65
30724;BME280;17473;52.286;20.930;2023-07-29T10:44:52;99680.50;;;33.76;30.20
30724;BME280;17473;52.286;20.930;2023-07-29T10:47:29;99686.16;;;32.84;31.20
30724;BME280;17473;52.286;20.930;2023-07-29T10:49:58;99681.91;;;33.06;31.06
30724;BME280;17473;52.286;20.930;2023-07-29T10:55:03;99678.84;;;33.11;31.05
30724;BME280;17473;52.286;20.930;2023-07-29T10:57:38;99670.75;;;33.22;31.29
30724;BME280;17473;52.286;20.930;2023-07-29T11:00:06;99675.69;;;32.78;31.29
30724;BME280;17473;52.286;20.930;2023-07-29T11:02:38;99670.06;;;31.72;31.93
30724;BME280;17473;52.286;20.930;2023-07-29T11:05:08;99677.78;;;31.92;31.98
30724;BME280;17473;52.286;20.930;2023-07-29T11:07:49;99680.91;;;31.86;32.37
30724;BME280;17473;52.286;20.930;2023-07-29T11:10:16;99680.44;;;31.79;32.44
30724;BME280;17473;52.286;20.930;2023-07-29T11:12:51;99677.47;;;31.69;32.47
30724;BME280;17473;52.286;20.930;2023-07-29T11:15:25;99670.84;;;31.45;32.97
30724;BME280;17473;52.286;20.930;2023-07-29T11:17:58;99657.50;;;31.40;33.19
30724;BME280;17473;52.286;20.930;2023-07-29T11:20:31;99664.94;;;30.64;33.42
30724;BME280;17473;52.286;20.930;2023-07-29T11:23:02;99662.91;;;30.68;33.66
30724;BME280;17473;52.286;20.930;2023-07-29T11:25:31;99661.78;;;31.01;33.71
30724;BME280;17473;52.286;20.930;2023-07-29T11:27:59;99657.41;;;30.84;34.42
30724;BME280;17473;52.286;20.930;2023-07-29T11:30:29;99645.94;;;30.63;34.92
30724;BME280;17473;52.286;20.930;2023-07-29T11:32:58;99648.03;;;30.88;34.64
30724;BME280;17473;52.286;20.930;2023-07-29T11:35:26;99637.31;;;30.85;34.37
30724;BME280;17473;52.286;20.930;2023-07-29T11:37:55;99638.41;;;30.82;34.72
30724;BME280;17473;52.286;20.930;2023-07-29T11:40:24;99626.25;;;30.88;35.58
30724;BME280;17473;52.286;20.930;2023-07-29T11:42:53;99630.13;;;30.69;35.38
30724;BME280;17473;52.286;20.930;2023-07-29T11:45:22;99621.66;;;30.59;35.65
30724;BME280;17473;52.286;20.930;2023-07-29T11:48:01;99620.34;;;30.51;35.86
30724;BME280;17473;52.286;20.930;2023-07-29T11:50:29;99617.97;;;30.75;35.57
30724;BME280;17473;52.286;20.930;2023-07-29T11:52:56;99614.84;;;30.52;36.22
30724;BME280;17473;52.286;20.930;2023-07-29T11:55:24;99615.59;;;30.24;36.06
30724;BME280;17473;52.286;20.930;2023-07-29T11:57:52;99611.03;;;29.94;36.07
30724;BME280;17473;52.286;20.930;2023-07-29T12:00:21;99613.22;;;30.03;37.09
30724;BME280;17473;52.286;20.930;2023-07-29T12:02:49;99609.09;;;30.26;35.95
30724;BME280;17473;52.286;20.930;2023-07-29T12:05:17;99612.63;;;30.12;36.65
30724;BME280;17473;52.286;20.930;2023-07-29T12:07:45;99605.75;;;30.07;36.23
30724;BME280;17473;52.286;20.930;2023-07-29T12:10:13;99596.28;;;29.98;36.11
30724;BME280;17473;52.286;20.930;2023-07-29T12:12:49;99596.97;;;29.86;36.97
30724;BME280;17473;52.286;20.930;2023-07-29T12:15:29;99591.78;;;29.97;37.34
30724;BME280;17473;52.286;20.930;2023-07-29T12:17:58;99598.81;;;29.85;37.89
30724;BME280;17473;52.286;20.930;2023-07-29T12:20:26;99589.03;;;30.13;37.58
30724;BME280;17473;52.286;20.930;2023-07-29T12:22:58;99588.38;;;30.24;37.18
30724;BME280;17473;52.286;20.930;2023-07-29T12:25:29;99587.19;;;30.13;37.59
30724;BME280;17473;52.286;20.930;2023-07-29T12:27:56;99587.56;;;30.07;37.79
30724;BME280;17473;52.286;20.930;2023-07-29T12:30:23;99584.78;;;29.77;38.62
30724;BME280;17473;52.286;20.930;2023-07-29T12:32:52;99582.94;;;29.93;37.75
30724;BME280;17473;52.286;20.930;2023-07-29T12:35:19;99581.47;;;29.72;38.11
30724;BME280;17473;52.286;20.930;2023-07-29T12:37:46;99578.72;;;29.88;37.97
30724;BME280;17473;52.286;20.930;2023-07-29T12:40:23;99574.56;;;29.50;38.26
30724;BME280;17473;52.286;20.930;2023-07-29T12:42:51;99571.25;;;29.91;37.35
30724;BME280;17473;52.286;20.930;2023-07-29T12:45:19;99575.25;;;29.70;38.21
30724;BME280;17473;52.286;20.930;2023-07-29T12:47:46;99570.78;;;29.52;37.92
30724;BME280;17473;52.286;20.930;2023-07-29T12:50:13;99571.84;;;29.66;38.14
30724;BME280;17473;52.286;20.930;2023-07-29T12:52:40;99564.31;;;29.86;38.04
30724;BME280;17473;52.286;20.930;2023-07-29T12:55:07;99561.41;;;29.58;38.23
30724;BME280;17473;52.286;20.930;2023-07-29T12:57:35;99572.28;;;29.58;37.97
30724;BME280;17473;52.286;20.930;2023-07-29T13:00:04;99566.47;;;29.64;38.58
30724;BME280;17473;52.286;20.930;2023-07-29T13:02:32;99564.31;;;29.86;38.31